C2 — ZCYD3 — position and weather

sailwx.info

Track history (hours):
 
Tides and Currents Weather Stations Pressure Air Temp Water Temp Dewpoint Dewpoint Depression Visibility Wind Speed Wind Dir Waves Ship Positions

C2

Last reported at 2015-Nov-21 04:07 UTC. Time now 2016-Feb-07 05:57 UTC.
Position N 35°57' W 006°02'.
Warning: this ship's position is months out of date.

Length 79 m; draft 3.4 m.

Type: Pleasure craft. MMSI: 319268000.

Date/timePositionNaut miles runAvg speedWind from/ knotsBaromVisibWave heightAir tempDewpointWater temp
2015-Nov-21 04:07N 35°57' W 006°02'914.1
2015-Nov-21 03:29N 35°57' W 005°51'1213.0
2015-Nov-21 02:33N 35°58' W 005°36'15 1.9
2015-Nov-20 18:16N 36°09' W 005°22'6 8.9
2015-Nov-20 17:33N 36°05' W 005°16'19614.7
2015-Nov-20 04:12N 36°56' W 001°20'1015.4
2015-Nov-20 03:33N 37°02' W 001°10'1615.5
2015-Nov-20 02:33N 37°11' W 000°54'1615.6
2015-Nov-20 01:33N 37°20' W 000°38'1515.3
2015-Nov-20 00:34N 37°30' W 000°24'4615.1
2015-Nov-19 21:32N 38°06' E 000°12'3115.5
2015-Nov-19 19:33N 38°30' E 000°36'2215.1
2015-Nov-19 18:05N 38°48' E 000°54'4014.3
2015-Nov-19 15:17N 39°19' E 001°25'1013.6
2015-Nov-19 14:33N 39°27' E 001°33'1813.8
2015-Nov-19 13:17N 39°41' E 001°48'1013.9
2015-Nov-19 12:33N 39°49' E 001°56'1413.5
2015-Nov-19 11:33N 39°60' E 002°06'1313.3
2015-Nov-19 10:33N 40°10' E 002°17'1313.3
2015-Nov-19 09:33N 40°21' E 002°27'  
Track history (hours):
 
Tides and Currents Weather Stations Pressure Air Temp Water Temp Dewpoint Dewpoint Depression Visibility Wind Speed Wind Dir Waves Ship Positions

C2

Last reported at 2015-Nov-21 04:07 UTC. Time now 2016-Feb-07 05:57 UTC.
Position N 35°57' W 006°02'.
Warning: this ship's position is months out of date.

Length 79 m; draft 3.4 m.

Type: Pleasure craft. MMSI: 319268000.

Date/timePositionNaut miles runAvg speedWind from/ knotsBaromVisibWave heightAir tempDewpointWater temp
2015-Nov-21 04:07N 35°57' W 006°02'914.1
2015-Nov-21 03:29N 35°57' W 005°51'1213.0
2015-Nov-21 02:33N 35°58' W 005°36'15 1.9
2015-Nov-20 18:16N 36°09' W 005°22'6 8.9
2015-Nov-20 17:33N 36°05' W 005°16'19614.7
2015-Nov-20 04:12N 36°56' W 001°20'1015.4
2015-Nov-20 03:33N 37°02' W 001°10'1615.5
2015-Nov-20 02:33N 37°11' W 000°54'1615.6
2015-Nov-20 01:33N 37°20' W 000°38'1515.3
2015-Nov-20 00:34N 37°30' W 000°24'4615.1
2015-Nov-19 21:32N 38°06' E 000°12'3115.5
2015-Nov-19 19:33N 38°30' E 000°36'2215.1
2015-Nov-19 18:05N 38°48' E 000°54'4014.3
2015-Nov-19 15:17N 39°19' E 001°25'1013.6
2015-Nov-19 14:33N 39°27' E 001°33'1813.8
2015-Nov-19 13:17N 39°41' E 001°48'1013.9
2015-Nov-19 12:33N 39°49' E 001°56'1413.5
2015-Nov-19 11:33N 39°60' E 002°06'1313.3
2015-Nov-19 10:33N 40°10' E 002°17'1313.3
2015-Nov-19 09:33N 40°21' E 002°27'  

Dump ship's entire track history